sensor_id;sensor_type;location;lat;lon;timestamp;pressure;altitude;pressure_sealevel;temperature;humidity
51178;BME280;37243;49.814;8.652;2023-02-19T00:01:59;100679.22;;;26.34;30.71
51178;BME280;37243;49.814;8.652;2023-02-19T00:04:28;100673.72;;;26.34;30.75
51178;BME280;37243;49.814;8.652;2023-02-19T00:06:59;100684.72;;;26.34;30.50
51178;BME280;37243;49.814;8.652;2023-02-19T00:09:27;100676.47;;;26.34;30.39
51178;BME280;37243;49.814;8.652;2023-02-19T00:11:55;100672.09;;;26.33;30.49
51178;BME280;37243;49.814;8.652;2023-02-19T00:14:24;100667.06;;;26.35;30.52
51178;BME280;37243;49.814;8.652;2023-02-19T00:16:52;100668.69;;;26.36;30.73
51178;BME280;37243;49.814;8.652;2023-02-19T00:19:20;100665.47;;;26.34;30.83
51178;BME280;37243;49.814;8.652;2023-02-19T00:21:50;100658.66;;;26.32;30.79
51178;BME280;37243;49.814;8.652;2023-02-19T00:24:21;100662.72;;;26.34;30.63
51178;BME280;37243;49.814;8.652;2023-02-19T00:26:50;100662.72;;;26.34;30.75
51178;BME280;37243;49.814;8.652;2023-02-19T00:29:19;100664.31;;;26.35;31.18
51178;BME280;37243;49.814;8.652;2023-02-19T00:31:49;100661.09;;;26.33;31.10
51178;BME280;37243;49.814;8.652;2023-02-19T00:34:17;100653.94;;;26.32;30.71
51178;BME280;37243;49.814;8.652;2023-02-19T00:36:46;100642.16;;;26.32;30.86
51178;BME280;37243;49.814;8.652;2023-02-19T00:39:15;100648.16;;;26.34;30.42
51178;BME280;37243;49.814;8.652;2023-02-19T00:41:49;100648.44;;;26.32;31.16
51178;BME280;37243;49.814;8.652;2023-02-19T00:44:17;100657.50;;;26.33;31.19
51178;BME280;37243;49.814;8.652;2023-02-19T00:46:46;100651.72;;;26.34;30.54
51178;BME280;37243;49.814;8.652;2023-02-19T00:49:17;100651.72;;;26.34;30.91
51178;BME280;37243;49.814;8.652;2023-02-19T00:51:47;100661.91;;;26.34;30.65
51178;BME280;37243;49.814;8.652;2023-02-19T00:54:16;100661.09;;;26.33;31.06
51178;BME280;37243;49.814;8.652;2023-02-19T00:56:49;100659.44;;;26.32;30.73
51178;BME280;37243;49.814;8.652;2023-02-19T00:59:18;100659.97;;;26.34;30.57
51178;BME280;37243;49.814;8.652;2023-02-19T01:01:46;100657.03;;;26.31;30.78
51178;BME280;37243;49.814;8.652;2023-02-19T01:04:15;100661.72;;;26.30;30.53
51178;BME280;37243;49.814;8.652;2023-02-19T01:06:43;100662.53;;;26.31;30.88
51178;BME280;37243;49.814;8.652;2023-02-19T01:09:13;100657.84;;;26.31;30.35
51178;BME280;37243;49.814;8.652;2023-02-19T01:11:41;100636.97;;;26.30;30.39
51178;BME280;37243;49.814;8.652;2023-02-19T01:14:12;100630.34;;;26.31;30.58
51178;BME280;37243;49.814;8.652;2023-02-19T01:16:41;100630.34;;;26.31;31.25
51178;BME280;37243;49.814;8.652;2023-02-19T01:19:09;100629.53;;;26.31;31.04
51178;BME280;37243;49.814;8.652;2023-02-19T01:21:38;100633.09;;;26.31;30.50
51178;BME280;37243;49.814;8.652;2023-02-19T01:24:09;100624.84;;;26.31;31.20
51178;BME280;37243;49.814;8.652;2023-02-19T01:26:38;100630.34;;;26.31;30.70
51178;BME280;37243;49.814;8.652;2023-02-19T01:29:07;100635.03;;;26.31;30.83
51178;BME280;37243;49.814;8.652;2023-02-19T01:31:38;100641.34;;;26.31;31.11
51178;BME280;37243;49.814;8.652;2023-02-19T01:34:09;100629.53;;;26.31;30.93
51178;BME280;37243;49.814;8.652;2023-02-19T01:36:38;100627.59;;;26.31;30.41
51178;BME280;37243;49.814;8.652;2023-02-19T01:39:06;100627.59;;;26.31;31.08
51178;BME280;37243;49.814;8.652;2023-02-19T01:41:36;100626.31;;;26.29;30.54
51178;BME280;37243;49.814;8.652;2023-02-19T01:44:06;100621.28;;;26.31;30.48
51178;BME280;37243;49.814;8.652;2023-02-19T01:46:40;100625.66;;;26.32;30.48
51178;BME280;37243;49.814;8.652;2023-02-19T01:49:11;100617.72;;;26.30;30.45
51178;BME280;37243;49.814;8.652;2023-02-19T01:51:43;100621.28;;;26.31;31.09
51178;BME280;37243;49.814;8.652;2023-02-19T01:54:15;100615.78;;;26.31;31.28
51178;BME280;37243;49.814;8.652;2023-02-19T01:56:45;100613.03;;;26.31;30.43
51178;BME280;37243;49.814;8.652;2023-02-19T01:59:16;100614.97;;;26.30;31.43
51178;BME280;37243;49.814;8.652;2023-02-19T02:01:48;100605.09;;;26.29;30.80
51178;BME280;37243;49.814;8.652;2023-02-19T02:04:17;100598.47;;;26.30;30.53
51178;BME280;37243;49.814;8.652;2023-02-19T02:06:49;100597.34;;;26.31;31.13
51178;BME280;37243;49.814;8.652;2023-02-19T02:09:19;100599.59;;;26.29;30.52
51178;BME280;37243;49.814;8.652;2023-02-19T02:12:00;100598.47;;;26.30;31.07
51178;BME280;37243;49.814;8.652;2023-02-19T02:14:32;100599.28;;;26.31;31.19
51178;BME280;37243;49.814;8.652;2023-02-19T02:17:09;100596.53;;;26.31;30.79
51178;BME280;37243;49.814;8.652;2023-02-19T02:20:01;100590.22;;;26.30;30.84
51178;BME280;37243;49.814;8.652;2023-02-19T02:22:37;100581.97;;;26.30;30.93
51178;BME280;37243;49.814;8.652;2023-02-19T02:25:27;100594.91;;;26.30;30.42
51178;BME280;37243;49.814;8.652;2023-02-19T02:28:10;100581.97;;;26.30;31.01
51178;BME280;37243;49.814;8.652;2023-02-19T02:30:46;100576.16;;;26.32;30.91
51178;BME280;37243;49.814;8.652;2023-02-19T02:33:26;100573.72;;;26.30;30.71
51178;BME280;37243;49.814;8.652;2023-02-19T02:35:58;100577.59;;;26.29;30.61
51178;BME280;37243;49.814;8.652;2023-02-19T02:38:31;100577.59;;;26.29;31.12
51178;BME280;37243;49.814;8.652;2023-02-19T02:41:01;100573.72;;;26.30;30.57
51178;BME280;37243;49.814;8.652;2023-02-19T02:43:30;100574.34;;;26.27;30.78
51178;BME280;37243;49.814;8.652;2023-02-19T02:46:01;100572.06;;;26.29;31.26
51178;BME280;37243;49.814;8.652;2023-02-19T02:48:34;100566.09;;;26.27;30.60
51178;BME280;37243;49.814;8.652;2023-02-19T02:51:09;100568.22;;;26.30;30.40
51178;BME280;37243;49.814;8.652;2023-02-19T02:53:43;100569.66;;;26.28;31.04
51178;BME280;37243;49.814;8.652;2023-02-19T02:56:27;100566.59;;;26.29;31.17
51178;BME280;37243;49.814;8.652;2023-02-19T02:58:57;100556.72;;;26.28;31.22
51178;BME280;37243;49.814;8.652;2023-02-19T03:01:32;100552.81;;;26.29;30.62
51178;BME280;37243;49.814;8.652;2023-02-19T03:04:20;100552.34;;;26.27;31.21
51178;BME280;37243;49.814;8.652;2023-02-19T03:06:51;100547.31;;;26.29;30.58
51178;BME280;37243;49.814;8.652;2023-02-19T03:09:24;100545.38;;;26.30;31.20
51178;BME280;37243;49.814;8.652;2023-02-19T03:11:57;100544.56;;;26.29;31.18
51178;BME280;37243;49.814;8.652;2023-02-19T03:14:44;100539.72;;;26.26;31.17
51178;BME280;37243;49.814;8.652;2023-02-19T03:17:33;100547.66;;;26.28;31.12
51178;BME280;37243;49.814;8.652;2023-02-19T03:20:18;100537.47;;;26.28;30.80
51178;BME280;37243;49.814;8.652;2023-02-19T03:22:49;100546.03;;;26.27;30.89
51178;BME280;37243;49.814;8.652;2023-02-19T03:25:20;100544.09;;;26.27;31.18
51178;BME280;37243;49.814;8.652;2023-02-19T03:28:07;100535.84;;;26.27;30.63
51178;BME280;37243;49.814;8.652;2023-02-19T03:30:39;100541.34;;;26.27;30.89
51178;BME280;37243;49.814;8.652;2023-02-19T03:33:13;100547.31;;;26.29;31.12
51178;BME280;37243;49.814;8.652;2023-02-19T03:35:46;100544.09;;;26.27;30.70
51178;BME280;37243;49.814;8.652;2023-02-19T03:38:19;100543.28;;;26.27;30.90
51178;BME280;37243;49.814;8.652;2023-02-19T03:40:54;100551.22;;;26.28;30.58
51178;BME280;37243;49.814;8.652;2023-02-19T03:43:31;100551.22;;;26.28;31.09
51178;BME280;37243;49.814;8.652;2023-02-19T03:46:05;100555.09;;;26.27;31.22
51178;BME280;37243;49.814;8.652;2023-02-19T03:48:45;100548.47;;;26.28;30.89
51178;BME280;37243;49.814;8.652;2023-02-19T03:51:25;100542.97;;;26.28;31.28
51178;BME280;37243;49.814;8.652;2023-02-19T03:54:01;100544.09;;;26.27;30.72
51178;BME280;37243;49.814;8.652;2023-02-19T03:56:35;100557.84;;;26.27;30.79
51178;BME280;37243;49.814;8.652;2023-02-19T03:59:10;100544.44;;;26.26;30.63
51178;BME280;37243;49.814;8.652;2023-02-19T04:01:43;100551.53;;;26.27;31.12
51178;BME280;37243;49.814;8.652;2023-02-19T04:04:19;100569.34;;;26.29;30.44
51178;BME280;37243;49.814;8.652;2023-02-19T04:06:52;100571.59;;;26.27;30.62
51178;BME280;37243;49.814;8.652;2023-02-19T04:09:24;100574.34;;;26.27;30.48
51178;BME280;37243;49.814;8.652;2023-02-19T04:11:55;100575.81;;;26.25;31.17
51178;BME280;37243;49.814;8.652;2023-02-19T04:14:26;100577.09;;;26.27;30.60
51178;BME280;37243;49.814;8.652;2023-02-19T04:16:58;100571.13;;;26.25;30.88
51178;BME280;37243;49.814;8.652;2023-02-19T04:19:36;100570.31;;;26.25;31.27
51178;BME280;37243;49.814;8.652;2023-02-19T04:22:07;100574.69;;;26.26;31.14
51178;BME280;37243;49.814;8.652;2023-02-19T04:24:40;100568.84;;;26.27;30.57
51178;BME280;37243;49.814;8.652;2023-02-19T04:27:09;100567.22;;;26.26;30.56
51178;BME280;37243;49.814;8.652;2023-02-19T04:29:38;100576.28;;;26.27;31.12
51178;BME280;37243;49.814;8.652;2023-02-19T04:32:08;100557.53;;;26.29;30.68
51178;BME280;37243;49.814;8.652;2023-02-19T04:34:40;100566.09;;;26.27;30.27
51178;BME280;37243;49.814;8.652;2023-02-19T04:37:08;100568.84;;;26.27;30.70
51178;BME280;37243;49.814;8.652;2023-02-19T04:39:36;100568.03;;;26.27;31.08
51178;BME280;37243;49.814;8.652;2023-02-19T04:42:05;100575.16;;;26.28;31.18
51178;BME280;37243;49.814;8.652;2023-02-19T04:44:33;100566.09;;;26.27;31.38
51178;BME280;37243;49.814;8.652;2023-02-19T04:47:01;100568.03;;;26.27;31.37
51178;BME280;37243;49.814;8.652;2023-02-19T04:49:30;100571.13;;;26.25;31.32
51178;BME280;37243;49.814;8.652;2023-02-19T04:52:01;100571.13;;;26.25;31.34
51178;BME280;37243;49.814;8.652;2023-02-19T04:54:29;100577.44;;;26.26;30.96
51178;BME280;37243;49.814;8.652;2023-02-19T04:56:57;100573.53;;;26.27;30.65
51178;BME280;37243;49.814;8.652;2023-02-19T04:59:26;100589.22;;;26.26;30.70
51178;BME280;37243;49.814;8.652;2023-02-19T05:01:54;100585.19;;;26.24;31.22
51178;BME280;37243;49.814;8.652;2023-02-19T05:04:24;100592.66;;;26.23;31.38
51178;BME280;37243;49.814;8.652;2023-02-19T05:06:52;100596.69;;;26.26;30.69
51178;BME280;37243;49.814;8.652;2023-02-19T05:09:23;100589.22;;;26.26;30.96
51178;BME280;37243;49.814;8.652;2023-02-19T05:11:51;100598.16;;;26.23;31.35
51178;BME280;37243;49.814;8.652;2023-02-19T05:14:20;100604.13;;;26.25;30.71
51178;BME280;37243;49.814;8.652;2023-02-19T05:16:48;100610.44;;;26.26;30.77
51178;BME280;37243;49.814;8.652;2023-02-19T05:19:16;100609.63;;;26.25;30.60
51178;BME280;37243;49.814;8.652;2023-02-19T05:21:45;100611.22;;;26.26;31.19
51178;BME280;37243;49.814;8.652;2023-02-19T05:24:13;100619.00;;;26.24;31.32
51178;BME280;37243;49.814;8.652;2023-02-19T05:26:44;100617.88;;;26.25;30.63
51178;BME280;37243;49.814;8.652;2023-02-19T05:29:13;100617.88;;;26.25;30.83
51178;BME280;37243;49.814;8.652;2023-02-19T05:31:41;100607.19;;;26.24;30.78
51178;BME280;37243;49.814;8.652;2023-02-19T05:34:09;100610.75;;;26.24;31.01
51178;BME280;37243;49.814;8.652;2023-02-19T05:36:38;100610.44;;;26.26;30.72
51178;BME280;37243;49.814;8.652;2023-02-19T05:39:06;100611.22;;;26.26;30.91
51178;BME280;37243;49.814;8.652;2023-02-19T05:41:35;100613.97;;;26.26;30.78
51178;BME280;37243;49.814;8.652;2023-02-19T05:44:06;100624.19;;;26.26;31.48
51178;BME280;37243;49.814;8.652;2023-02-19T05:46:34;100625.66;;;26.23;31.32
51178;BME280;37243;49.814;8.652;2023-02-19T05:49:02;100626.75;;;26.22;30.67
51178;BME280;37243;49.814;8.652;2023-02-19T05:51:31;100633.91;;;26.23;31.06
51178;BME280;37243;49.814;8.652;2023-02-19T05:53:59;100644.91;;;26.23;30.77
51178;BME280;37243;49.814;8.652;2023-02-19T05:56:31;100627.72;;;26.26;31.00
51178;BME280;37243;49.814;8.652;2023-02-19T05:59:01;100631.63;;;26.25;30.85
51178;BME280;37243;49.814;8.652;2023-02-19T06:01:34;100641.00;;;26.24;30.63
51178;BME280;37243;49.814;8.652;2023-02-19T06:04:02;100646.50;;;26.24;30.86
51178;BME280;37243;49.814;8.652;2023-02-19T06:06:31;100649.25;;;26.24;31.33
51178;BME280;37243;49.814;8.652;2023-02-19T06:08:59;100657.84;;;26.23;30.82
51178;BME280;37243;49.814;8.652;2023-02-19T06:11:28;100663.00;;;26.24;31.34
51178;BME280;37243;49.814;8.652;2023-02-19T06:13:57;100670.75;;;26.22;31.51
51178;BME280;37243;49.814;8.652;2023-02-19T06:16:25;100673.19;;;26.24;31.44
51178;BME280;37243;49.814;8.652;2023-02-19T06:18:56;100657.50;;;26.24;31.30
51178;BME280;37243;49.814;8.652;2023-02-19T06:21:24;100669.66;;;26.23;30.79
51178;BME280;37243;49.814;8.652;2023-02-19T06:23:53;100667.19;;;26.22;30.77
51178;BME280;37243;49.814;8.652;2023-02-19T06:26:23;100670.75;;;26.22;31.24
51178;BME280;37243;49.814;8.652;2023-02-19T06:28:52;100690.50;;;26.24;31.18
51178;BME280;37243;49.814;8.652;2023-02-19T06:31:21;100693.59;;;26.23;30.72
51178;BME280;37243;49.814;8.652;2023-02-19T06:33:50;100705.41;;;26.23;31.40
51178;BME280;37243;49.814;8.652;2023-02-19T06:36:22;100701.50;;;26.24;31.11
51178;BME280;37243;49.814;8.652;2023-02-19T06:38:50;100707.00;;;26.24;30.78
51178;BME280;37243;49.814;8.652;2023-02-19T06:41:19;100702.66;;;26.23;31.44
51178;BME280;37243;49.814;8.652;2023-02-19T06:43:47;100702.94;;;26.22;31.42
51178;BME280;37243;49.814;8.652;2023-02-19T06:46:15;100692.75;;;26.22;31.14
51178;BME280;37243;49.814;8.652;2023-02-19T06:48:44;100702.66;;;26.23;31.34
51178;BME280;37243;49.814;8.652;2023-02-19T06:51:14;100713.66;;;26.23;30.81
51178;BME280;37243;49.814;8.652;2023-02-19T06:53:45;100709.28;;;26.22;31.21
51178;BME280;37243;49.814;8.652;2023-02-19T06:56:25;100717.50;;;26.22;31.05
51178;BME280;37243;49.814;8.652;2023-02-19T06:58:56;100721.91;;;26.23;31.46
51178;BME280;37243;49.814;8.652;2023-02-19T07:01:25;100714.78;;;26.22;31.06
51178;BME280;37243;49.814;8.652;2023-02-19T07:03:54;100717.50;;;26.22;31.17
51178;BME280;37243;49.814;8.652;2023-02-19T07:06:24;100713.66;;;26.23;31.06
51178;BME280;37243;49.814;8.652;2023-02-19T07:08:57;100717.50;;;26.22;31.12
51178;BME280;37243;49.814;8.652;2023-02-19T07:11:28;100729.34;;;26.23;31.42
51178;BME280;37243;49.814;8.652;2023-02-19T07:13:58;100730.94;;;26.24;31.44
51178;BME280;37243;49.814;8.652;2023-02-19T07:16:27;100728.53;;;26.22;31.12
51178;BME280;37243;49.814;8.652;2023-02-19T07:18:56;100729.63;;;26.21;31.26
51178;BME280;37243;49.814;8.652;2023-02-19T07:21:25;100735.13;;;26.21;31.39
51178;BME280;37243;49.814;8.652;2023-02-19T07:23:57;100747.13;;;26.25;30.77
51178;BME280;37243;49.814;8.652;2023-02-19T07:26:25;100737.59;;;26.23;31.12
51178;BME280;37243;49.814;8.652;2023-02-19T07:28:53;100746.94;;;26.22;31.36
51178;BME280;37243;49.814;8.652;2023-02-19T07:31:22;100746.13;;;26.21;30.69
51178;BME280;37243;49.814;8.652;2023-02-19T07:33:51;100749.41;;;26.23;30.82
51178;BME280;37243;49.814;8.652;2023-02-19T07:36:20;100759.75;;;26.26;31.21
51178;BME280;37243;49.814;8.652;2023-02-19T07:38:52;100757.31;;;26.25;31.50
51178;BME280;37243;49.814;8.652;2023-02-19T07:41:25;100754.91;;;26.23;31.36
51178;BME280;37243;49.814;8.652;2023-02-19T07:43:54;100760.41;;;26.23;30.73
51178;BME280;37243;49.814;8.652;2023-02-19T07:46:23;100758.78;;;26.22;30.69
51178;BME280;37243;49.814;8.652;2023-02-19T07:48:51;100765.38;;;26.21;31.47
51178;BME280;37243;49.814;8.652;2023-02-19T07:51:20;100765.09;;;26.23;30.88
51178;BME280;37243;49.814;8.652;2023-02-19T07:53:49;100776.09;;;26.23;30.90
51178;BME280;37243;49.814;8.652;2023-02-19T07:56:18;100782.69;;;26.22;31.00
51178;BME280;37243;49.814;8.652;2023-02-19T07:58:50;100779.66;;;26.23;30.76
51178;BME280;37243;49.814;8.652;2023-02-19T08:01:20;100787.09;;;26.23;31.24
51178;BME280;37243;49.814;8.652;2023-02-19T08:04:11;100788.53;;;26.20;30.70
51178;BME280;37243;49.814;8.652;2023-02-19T08:06:38;100800.31;;;26.21;31.02
51178;BME280;37243;49.814;8.652;2023-02-19T08:09:07;100801.13;;;26.21;31.12
51178;BME280;37243;49.814;8.652;2023-02-19T08:11:35;100803.06;;;26.21;31.34
51178;BME280;37243;49.814;8.652;2023-02-19T08:14:22;100806.63;;;26.21;30.66
51178;BME280;37243;49.814;8.652;2023-02-19T08:16:51;100803.88;;;26.21;31.30
51178;BME280;37243;49.814;8.652;2023-02-19T08:19:20;100804.22;;;26.20;31.17
51178;BME280;37243;49.814;8.652;2023-02-19T08:21:48;100812.13;;;26.21;31.30
51178;BME280;37243;49.814;8.652;2023-02-19T08:24:17;100818.44;;;26.22;30.83
51178;BME280;37243;49.814;8.652;2023-02-19T08:26:46;100820.38;;;26.21;31.41
51178;BME280;37243;49.814;8.652;2023-02-19T08:29:14;100817.97;;;26.20;30.77
51178;BME280;37243;49.814;8.652;2023-02-19T08:31:46;100827.34;;;26.19;30.84
51178;BME280;37243;49.814;8.652;2023-02-19T08:34:14;100833.66;;;26.19;31.62
51178;BME280;37243;49.814;8.652;2023-02-19T08:36:42;100831.38;;;26.21;31.14
51178;BME280;37243;49.814;8.652;2023-02-19T08:39:13;100835.28;;;26.20;30.70
51178;BME280;37243;49.814;8.652;2023-02-19T08:41:41;100845.13;;;26.21;31.36
51178;BME280;37243;49.814;8.652;2023-02-19T08:44:10;100852.28;;;26.22;31.21
51178;BME280;37243;49.814;8.652;2023-02-19T08:46:38;100858.59;;;26.23;30.99
51178;BME280;37243;49.814;8.652;2023-02-19T08:49:09;100852.91;;;26.19;31.11
51178;BME280;37243;49.814;8.652;2023-02-19T08:51:37;100859.22;;;26.20;30.96
51178;BME280;37243;49.814;8.652;2023-02-19T08:54:06;100870.72;;;26.22;30.78
51178;BME280;37243;49.814;8.652;2023-02-19T08:56:34;100869.88;;;26.21;31.14
51178;BME280;37243;49.814;8.652;2023-02-19T08:59:02;100872.63;;;26.21;31.11
51178;BME280;37243;49.814;8.652;2023-02-19T09:01:31;100874.28;;;26.22;30.69
51178;BME280;37243;49.814;8.652;2023-02-19T09:03:59;100881.41;;;26.23;31.16
51178;BME280;37243;49.814;8.652;2023-02-19T09:06:30;100882.53;;;26.22;31.22
51178;BME280;37243;49.814;8.652;2023-02-19T09:08:58;100878.66;;;26.23;31.44
51178;BME280;37243;49.814;8.652;2023-02-19T09:11:27;100879.44;;;26.24;31.12
51178;BME280;37243;49.814;8.652;2023-02-19T09:13:55;100878.13;;;26.21;31.45
51178;BME280;37243;49.814;8.652;2023-02-19T09:16:24;100890.78;;;26.22;31.07
51178;BME280;37243;49.814;8.652;2023-02-19T09:18:52;100900.66;;;26.23;31.05
51178;BME280;37243;49.814;8.652;2023-02-19T09:21:20;100891.59;;;26.23;30.66
51178;BME280;37243;49.814;8.652;2023-02-19T09:23:52;100897.91;;;26.23;30.67
51178;BME280;37243;49.814;8.652;2023-02-19T09:26:21;100894.34;;;26.23;31.01
51178;BME280;37243;49.814;8.652;2023-02-19T09:28:49;100906.16;;;26.23;31.29
51178;BME280;37243;49.814;8.652;2023-02-19T09:31:18;100895.47;;;26.22;30.68
51178;BME280;37243;49.814;8.652;2023-02-19T09:33:47;100890.78;;;26.22;30.79
51178;BME280;37243;49.814;8.652;2023-02-19T09:36:16;100897.91;;;26.23;31.48
51178;BME280;37243;49.814;8.652;2023-02-19T09:38:45;100904.19;;;26.24;31.41
51178;BME280;37243;49.814;8.652;2023-02-19T09:41:21;100903.41;;;26.23;31.01
51178;BME280;37243;49.814;8.652;2023-02-19T09:43:51;100904.72;;;26.26;31.52
51178;BME280;37243;49.814;8.652;2023-02-19T09:46:26;100902.75;;;26.26;31.49
51178;BME280;37243;49.814;8.652;2023-02-19T09:49:00;100906.94;;;26.24;31.41
51178;BME280;37243;49.814;8.652;2023-02-19T09:51:31;100900.66;;;26.23;31.08
51178;BME280;37243;49.814;8.652;2023-02-19T09:54:03;100901.78;;;26.22;31.22
51178;BME280;37243;49.814;8.652;2023-02-19T09:56:37;100896.75;;;26.24;31.49
51178;BME280;37243;49.814;8.652;2023-02-19T09:59:05;100903.41;;;26.23;31.46
51178;BME280;37243;49.814;8.652;2023-02-19T10:01:42;100904.53;;;26.22;31.40
51178;BME280;37243;49.814;8.652;2023-02-19T10:04:11;100903.41;;;26.23;30.86
51178;BME280;37243;49.814;8.652;2023-02-19T10:06:40;100897.91;;;26.23;31.42
51178;BME280;37243;49.814;8.652;2023-02-19T10:09:17;100901.16;;;26.25;30.85
51178;BME280;37243;49.814;8.652;2023-02-19T10:11:51;100908.91;;;26.23;31.14
51178;BME280;37243;49.814;8.652;2023-02-19T10:14:24;100908.91;;;26.23;31.50
51178;BME280;37243;49.814;8.652;2023-02-19T10:16:59;100911.16;;;26.21;31.11
51178;BME280;37243;49.814;8.652;2023-02-19T10:19:28;100908.09;;;26.23;31.10
51178;BME280;37243;49.814;8.652;2023-02-19T10:21:57;100915.53;;;26.22;31.24
51178;BME280;37243;49.814;8.652;2023-02-19T10:24:27;100915.53;;;26.22;31.04
51178;BME280;37243;49.814;8.652;2023-02-19T10:26:59;100919.91;;;26.23;31.12
51178;BME280;37243;49.814;8.652;2023-02-19T10:29:27;100919.91;;;26.23;30.73
51178;BME280;37243;49.814;8.652;2023-02-19T10:32:21;100927.34;;;26.23;31.10
51178;BME280;37243;49.814;8.652;2023-02-19T10:35:09;100930.91;;;26.23;31.14
51178;BME280;37243;49.814;8.652;2023-02-19T10:37:42;100937.53;;;26.22;31.61
51178;BME280;37243;49.814;8.652;2023-02-19T10:40:16;100939.16;;;26.23;31.07
51178;BME280;37243;49.814;8.652;2023-02-19T10:42:50;100945.78;;;26.22;31.15
51178;BME280;37243;49.814;8.652;2023-02-19T10:45:22;100942.41;;;26.25;31.29
51178;BME280;37243;49.814;8.652;2023-02-19T10:47:51;100936.09;;;26.25;30.65
51178;BME280;37243;49.814;8.652;2023-02-19T10:50:25;100938.84;;;26.25;31.53
51178;BME280;37243;49.814;8.652;2023-02-19T10:52:57;100940.78;;;26.24;31.46
51178;BME280;37243;49.814;8.652;2023-02-19T10:55:30;100955.66;;;26.23;31.42
51178;BME280;37243;49.814;8.652;2023-02-19T10:58:21;100952.91;;;26.23;31.10
51178;BME280;37243;49.814;8.652;2023-02-19T11:01:13;100961.16;;;26.23;31.24
51178;BME280;37243;49.814;8.652;2023-02-19T11:03:44;100963.91;;;26.23;30.66
51178;BME280;37243;49.814;8.652;2023-02-19T11:06:14;100961.66;;;26.25;30.70
51178;BME280;37243;49.814;8.652;2023-02-19T11:08:50;100958.41;;;26.23;31.24
51178;BME280;37243;49.814;8.652;2023-02-19T11:11:24;100966.34;;;26.25;30.67
51178;BME280;37243;49.814;8.652;2023-02-19T11:13:57;100980.59;;;26.27;30.84
51178;BME280;37243;49.814;8.652;2023-02-19T11:16:37;100974.59;;;26.25;30.75
51178;BME280;37243;49.814;8.652;2023-02-19T11:19:21;100988.66;;;26.23;31.34
51178;BME280;37243;49.814;8.652;2023-02-19T11:21:50;100986.72;;;26.24;31.01
51178;BME280;37243;49.814;8.652;2023-02-19T11:24:25;100993.03;;;26.24;31.05
51178;BME280;37243;49.814;8.652;2023-02-19T11:26:56;100991.59;;;26.27;31.17
51178;BME280;37243;49.814;8.652;2023-02-19T11:29:28;100977.00;;;26.26;30.84
51178;BME280;37243;49.814;8.652;2023-02-19T11:32:21;100985.91;;;26.23;31.46
51178;BME280;37243;49.814;8.652;2023-02-19T11:34:51;100985.09;;;26.23;30.65
51178;BME280;37243;49.814;8.652;2023-02-19T11:37:20;100991.41;;;26.23;30.72
51178;BME280;37243;49.814;8.652;2023-02-19T11:39:49;100991.41;;;26.23;30.79
51178;BME280;37243;49.814;8.652;2023-02-19T11:42:28;100977.66;;;26.23;30.75
51178;BME280;37243;49.814;8.652;2023-02-19T11:45:16;100980.41;;;26.23;31.35
51178;BME280;37243;49.814;8.652;2023-02-19T11:48:22;100984.78;;;26.24;31.30
51178;BME280;37243;49.814;8.652;2023-02-19T11:51:03;100980.41;;;26.23;31.40
51178;BME280;37243;49.814;8.652;2023-02-19T11:53:33;100970.22;;;26.24;30.65
51178;BME280;37243;49.814;8.652;2023-02-19T11:56:11;100976.53;;;26.24;30.75
51178;BME280;37243;49.814;8.652;2023-02-19T11:58:50;100982.03;;;26.24;31.04
51178;BME280;37243;49.814;8.652;2023-02-19T12:01:34;100994.16;;;26.23;30.33
51178;BME280;37243;49.814;8.652;2023-02-19T12:04:24;101005.19;;;26.23;31.04
51178;BME280;37243;49.814;8.652;2023-02-19T12:07:05;100998.84;;;26.23;30.82
51178;BME280;37243;49.814;8.652;2023-02-19T12:09:45;100995.78;;;26.24;30.88
51178;BME280;37243;49.814;8.652;2023-02-19T12:12:36;100991.91;;;26.25;30.76
51178;BME280;37243;49.814;8.652;2023-02-19T12:15:26;100991.41;;;26.23;30.68
51178;BME280;37243;49.814;8.652;2023-02-19T12:18:17;100985.09;;;26.23;31.31
51178;BME280;37243;49.814;8.652;2023-02-19T12:20:53;100994.66;;;26.25;30.66
51178;BME280;37243;49.814;8.652;2023-02-19T12:23:37;100988.66;;;26.23;31.21
51178;BME280;37243;49.814;8.652;2023-02-19T12:26:20;100991.41;;;26.23;31.32
51178;BME280;37243;49.814;8.652;2023-02-19T12:29:09;100987.53;;;26.24;30.99
51178;BME280;37243;49.814;8.652;2023-02-19T12:32:08;100981.53;;;26.22;31.03
51178;BME280;37243;49.814;8.652;2023-02-19T12:37:57;100985.91;;;26.23;31.17
51178;BME280;37243;49.814;8.652;2023-02-19T12:40:45;100978.78;;;26.22;30.92
51178;BME280;37243;49.814;8.652;2023-02-19T12:43:18;100971.66;;;26.21;31.31
51178;BME280;37243;49.814;8.652;2023-02-19T12:45:52;100978.78;;;26.22;31.31
51178;BME280;37243;49.814;8.652;2023-02-19T12:48:27;100983.16;;;26.23;31.01
51178;BME280;37243;49.814;8.652;2023-02-19T12:51:03;100996.91;;;26.23;31.25
51178;BME280;37243;49.814;8.652;2023-02-19T12:53:38;100991.41;;;26.23;31.41
51178;BME280;37243;49.814;8.652;2023-02-19T12:56:12;100991.41;;;26.23;31.05
51178;BME280;37243;49.814;8.652;2023-02-19T12:58:44;100988.34;;;26.25;30.63
51178;BME280;37243;49.814;8.652;2023-02-19T13:01:19;100972.47;;;26.22;31.14
51178;BME280;37243;49.814;8.652;2023-02-19T13:03:53;100969.41;;;26.23;30.96
51178;BME280;37243;49.814;8.652;2023-02-19T13:06:35;100970.22;;;26.24;30.95
51178;BME280;37243;49.814;8.652;2023-02-19T13:09:08;100971.03;;;26.24;30.80
51178;BME280;37243;49.814;8.652;2023-02-19T13:11:43;100971.03;;;26.24;30.99
51178;BME280;37243;49.814;8.652;2023-02-19T13:14:18;100966.34;;;26.25;31.21
51178;BME280;37243;49.814;8.652;2023-02-19T13:16:53;100971.50;;;26.26;31.07
51178;BME280;37243;49.814;8.652;2023-02-19T13:19:23;100962.28;;;26.22;30.66
51178;BME280;37243;49.814;8.652;2023-02-19T13:22:00;100961.16;;;26.23;30.92